sensor_id;sensor_type;location;lat;lon;timestamp;P1;durP1;ratioP1;P2;durP2;ratioP2
11620;SDS011;5866;49.094;11.900;2022-12-18T00:01:14;160.20;;;37.57;;
11620;SDS011;5866;49.094;11.900;2022-12-18T00:03:43;107.90;;;62.07;;
11620;SDS011;5866;49.094;11.900;2022-12-18T00:06:12;104.80;;;37.13;;
11620;SDS011;5866;49.094;11.900;2022-12-18T00:08:40;129.93;;;55.30;;
11620;SDS011;5866;49.094;11.900;2022-12-18T00:11:09;104.77;;;34.43;;
11620;SDS011;5866;49.094;11.900;2022-12-18T00:13:38;163.43;;;56.40;;
11620;SDS011;5866;49.094;11.900;2022-12-18T00:16:07;116.97;;;47.57;;
11620;SDS011;5866;49.094;11.900;2022-12-18T00:18:38;137.00;;;48.83;;
11620;SDS011;5866;49.094;11.900;2022-12-18T00:21:08;138.83;;;49.97;;
11620;SDS011;5866;49.094;11.900;2022-12-18T00:23:38;143.70;;;56.57;;
11620;SDS011;5866;49.094;11.900;2022-12-18T00:26:09;123.47;;;52.77;;
11620;SDS011;5866;49.094;11.900;2022-12-18T00:28:38;125.47;;;62.83;;
11620;SDS011;5866;49.094;11.900;2022-12-18T00:31:06;102.33;;;42.83;;
11620;SDS011;5866;49.094;11.900;2022-12-18T00:33:38;128.73;;;59.30;;
11620;SDS011;5866;49.094;11.900;2022-12-18T00:36:07;143.77;;;50.77;;
11620;SDS011;5866;49.094;11.900;2022-12-18T00:38:37;117.93;;;55.80;;
11620;SDS011;5866;49.094;11.900;2022-12-18T00:41:06;104.80;;;48.50;;
11620;SDS011;5866;49.094;11.900;2022-12-18T00:43:34;110.13;;;53.23;;
11620;SDS011;5866;49.094;11.900;2022-12-18T00:46:03;94.03;;;46.77;;
11620;SDS011;5866;49.094;11.900;2022-12-18T00:48:33;183.37;;;52.57;;
11620;SDS011;5866;49.094;11.900;2022-12-18T00:51:02;135.50;;;42.30;;
11620;SDS011;5866;49.094;11.900;2022-12-18T00:53:30;119.90;;;38.80;;
11620;SDS011;5866;49.094;11.900;2022-12-18T00:55:57;87.80;;;37.67;;
11620;SDS011;5866;49.094;11.900;2022-12-18T00:58:25;129.10;;;35.90;;
11620;SDS011;5866;49.094;11.900;2022-12-18T01:00:53;115.43;;;35.30;;
11620;SDS011;5866;49.094;11.900;2022-12-18T01:03:21;89.97;;;35.13;;
11620;SDS011;5866;49.094;11.900;2022-12-18T01:05:49;83.47;;;36.30;;
11620;SDS011;5866;49.094;11.900;2022-12-18T01:08:18;78.70;;;43.60;;
11620;SDS011;5866;49.094;11.900;2022-12-18T01:10:45;142.47;;;64.17;;
11620;SDS011;5866;49.094;11.900;2022-12-18T01:13:13;81.37;;;52.03;;
11620;SDS011;5866;49.094;11.900;2022-12-18T01:15:47;72.43;;;53.50;;
11620;SDS011;5866;49.094;11.900;2022-12-18T01:18:15;112.23;;;45.03;;
11620;SDS011;5866;49.094;11.900;2022-12-18T01:20:42;79.43;;;39.67;;
11620;SDS011;5866;49.094;11.900;2022-12-18T01:23:10;78.20;;;35.43;;
11620;SDS011;5866;49.094;11.900;2022-12-18T01:25:39;97.67;;;31.67;;
11620;SDS011;5866;49.094;11.900;2022-12-18T01:28:06;81.43;;;29.10;;
11620;SDS011;5866;49.094;11.900;2022-12-18T01:30:34;131.70;;;29.13;;
11620;SDS011;5866;49.094;11.900;2022-12-18T01:33:02;120.23;;;34.97;;
11620;SDS011;5866;49.094;11.900;2022-12-18T01:35:31;102.40;;;32.40;;
11620;SDS011;5866;49.094;11.900;2022-12-18T01:37:58;100.23;;;31.23;;
11620;SDS011;5866;49.094;11.900;2022-12-18T01:40:26;94.53;;;28.93;;
11620;SDS011;5866;49.094;11.900;2022-12-18T01:42:55;103.57;;;25.97;;
11620;SDS011;5866;49.094;11.900;2022-12-18T01:45:26;86.53;;;28.20;;
11620;SDS011;5866;49.094;11.900;2022-12-18T01:47:55;94.03;;;27.83;;
11620;SDS011;5866;49.094;11.900;2022-12-18T01:50:27;68.57;;;24.80;;
11620;SDS011;5866;49.094;11.900;2022-12-18T01:52:58;87.37;;;28.20;;
11620;SDS011;5866;49.094;11.900;2022-12-18T01:55:29;77.80;;;26.10;;
11620;SDS011;5866;49.094;11.900;2022-12-18T01:58:03;93.67;;;27.57;;
11620;SDS011;5866;49.094;11.900;2022-12-18T02:00:31;69.93;;;25.83;;
11620;SDS011;5866;49.094;11.900;2022-12-18T02:02:59;87.53;;;27.37;;
11620;SDS011;5866;49.094;11.900;2022-12-18T02:05:31;141.13;;;25.97;;
11620;SDS011;5866;49.094;11.900;2022-12-18T02:08:09;65.90;;;22.43;;
11620;SDS011;5866;49.094;11.900;2022-12-18T02:10:46;84.53;;;23.50;;
11620;SDS011;5866;49.094;11.900;2022-12-18T02:13:20;75.83;;;23.27;;
11620;SDS011;5866;49.094;11.900;2022-12-18T02:15:58;89.40;;;21.83;;
11620;SDS011;5866;49.094;11.900;2022-12-18T02:18:35;82.37;;;22.03;;
11620;SDS011;5866;49.094;11.900;2022-12-18T02:21:08;105.00;;;27.47;;
11620;SDS011;5866;49.094;11.900;2022-12-18T02:23:47;73.37;;;25.63;;
11620;SDS011;5866;49.094;11.900;2022-12-18T02:26:26;65.30;;;23.97;;
11620;SDS011;5866;49.094;11.900;2022-12-18T02:28:58;63.60;;;26.87;;
11620;SDS011;5866;49.094;11.900;2022-12-18T02:31:33;55.97;;;25.00;;
11620;SDS011;5866;49.094;11.900;2022-12-18T02:34:06;61.73;;;23.47;;
11620;SDS011;5866;49.094;11.900;2022-12-18T02:36:36;64.33;;;26.00;;
11620;SDS011;5866;49.094;11.900;2022-12-18T02:39:09;51.13;;;26.63;;
11620;SDS011;5866;49.094;11.900;2022-12-18T02:41:40;76.67;;;25.40;;
11620;SDS011;5866;49.094;11.900;2022-12-18T02:44:09;68.43;;;27.97;;
11620;SDS011;5866;49.094;11.900;2022-12-18T02:46:39;60.60;;;27.77;;
11620;SDS011;5866;49.094;11.900;2022-12-18T02:49:17;55.67;;;24.07;;
11620;SDS011;5866;49.094;11.900;2022-12-18T02:51:53;63.10;;;27.43;;
11620;SDS011;5866;49.094;11.900;2022-12-18T02:54:30;52.00;;;25.07;;
11620;SDS011;5866;49.094;11.900;2022-12-18T02:57:08;83.20;;;28.60;;
11620;SDS011;5866;49.094;11.900;2022-12-18T02:59:45;52.57;;;25.23;;
11620;SDS011;5866;49.094;11.900;2022-12-18T03:02:26;64.17;;;26.07;;
11620;SDS011;5866;49.094;11.900;2022-12-18T03:05:02;59.83;;;24.67;;
11620;SDS011;5866;49.094;11.900;2022-12-18T03:07:36;52.37;;;25.10;;
11620;SDS011;5866;49.094;11.900;2022-12-18T03:10:07;64.97;;;26.77;;
11620;SDS011;5866;49.094;11.900;2022-12-18T03:12:41;62.63;;;27.77;;
11620;SDS011;5866;49.094;11.900;2022-12-18T03:15:14;58.20;;;31.00;;
11620;SDS011;5866;49.094;11.900;2022-12-18T03:17:46;56.93;;;26.60;;
11620;SDS011;5866;49.094;11.900;2022-12-18T03:20:19;57.83;;;30.77;;
11620;SDS011;5866;49.094;11.900;2022-12-18T03:22:49;54.37;;;34.40;;
11620;SDS011;5866;49.094;11.900;2022-12-18T03:25:20;56.33;;;33.43;;
11620;SDS011;5866;49.094;11.900;2022-12-18T03:27:53;58.87;;;32.00;;
11620;SDS011;5866;49.094;11.900;2022-12-18T03:30:23;54.47;;;30.37;;
11620;SDS011;5866;49.094;11.900;2022-12-18T03:32:53;66.00;;;34.90;;
11620;SDS011;5866;49.094;11.900;2022-12-18T03:35:29;74.60;;;34.00;;
11620;SDS011;5866;49.094;11.900;2022-12-18T03:38:00;64.53;;;34.80;;
11620;SDS011;5866;49.094;11.900;2022-12-18T03:40:29;64.17;;;32.73;;
11620;SDS011;5866;49.094;11.900;2022-12-18T03:43:08;71.67;;;33.00;;
11620;SDS011;5866;49.094;11.900;2022-12-18T03:45:46;67.73;;;33.60;;
11620;SDS011;5866;49.094;11.900;2022-12-18T03:48:19;61.90;;;30.73;;
11620;SDS011;5866;49.094;11.900;2022-12-18T03:50:55;59.23;;;30.17;;
11620;SDS011;5866;49.094;11.900;2022-12-18T03:53:27;63.47;;;29.60;;
11620;SDS011;5866;49.094;11.900;2022-12-18T03:56:02;53.60;;;27.07;;
11620;SDS011;5866;49.094;11.900;2022-12-18T03:58:33;56.20;;;24.70;;
11620;SDS011;5866;49.094;11.900;2022-12-18T04:01:05;53.10;;;25.77;;
11620;SDS011;5866;49.094;11.900;2022-12-18T04:03:37;52.13;;;24.33;;
11620;SDS011;5866;49.094;11.900;2022-12-18T04:06:06;53.17;;;27.00;;
11620;SDS011;5866;49.094;11.900;2022-12-18T04:08:34;49.43;;;25.10;;
11620;SDS011;5866;49.094;11.900;2022-12-18T04:11:02;52.03;;;24.30;;
11620;SDS011;5866;49.094;11.900;2022-12-18T04:13:33;56.93;;;26.10;;
11620;SDS011;5866;49.094;11.900;2022-12-18T04:16:04;54.20;;;26.50;;
11620;SDS011;5866;49.094;11.900;2022-12-18T04:18:32;51.43;;;24.20;;
11620;SDS011;5866;49.094;11.900;2022-12-18T04:21:00;60.00;;;26.37;;
11620;SDS011;5866;49.094;11.900;2022-12-18T04:23:27;49.77;;;24.10;;
11620;SDS011;5866;49.094;11.900;2022-12-18T04:25:55;49.03;;;24.77;;
11620;SDS011;5866;49.094;11.900;2022-12-18T04:28:22;48.40;;;25.73;;
11620;SDS011;5866;49.094;11.900;2022-12-18T04:30:51;51.27;;;26.57;;
11620;SDS011;5866;49.094;11.900;2022-12-18T04:33:19;54.60;;;24.90;;
11620;SDS011;5866;49.094;11.900;2022-12-18T04:35:46;54.87;;;25.63;;
11620;SDS011;5866;49.094;11.900;2022-12-18T04:38:14;57.87;;;22.93;;
11620;SDS011;5866;49.094;11.900;2022-12-18T04:40:42;54.30;;;26.37;;
11620;SDS011;5866;49.094;11.900;2022-12-18T04:43:10;54.17;;;24.83;;
11620;SDS011;5866;49.094;11.900;2022-12-18T04:45:38;54.00;;;23.03;;
11620;SDS011;5866;49.094;11.900;2022-12-18T04:48:07;58.60;;;24.37;;
11620;SDS011;5866;49.094;11.900;2022-12-18T04:50:35;52.77;;;24.47;;
11620;SDS011;5866;49.094;11.900;2022-12-18T04:53:03;53.03;;;25.60;;
11620;SDS011;5866;49.094;11.900;2022-12-18T04:55:30;52.03;;;23.20;;
11620;SDS011;5866;49.094;11.900;2022-12-18T04:57:58;47.50;;;25.33;;
11620;SDS011;5866;49.094;11.900;2022-12-18T05:00:25;46.20;;;23.40;;
11620;SDS011;5866;49.094;11.900;2022-12-18T05:02:54;50.30;;;22.73;;
11620;SDS011;5866;49.094;11.900;2022-12-18T05:05:23;46.00;;;22.80;;
11620;SDS011;5866;49.094;11.900;2022-12-18T05:07:50;47.10;;;25.03;;
11620;SDS011;5866;49.094;11.900;2022-12-18T05:10:18;49.47;;;21.67;;
11620;SDS011;5866;49.094;11.900;2022-12-18T05:12:45;47.77;;;21.97;;
11620;SDS011;5866;49.094;11.900;2022-12-18T05:15:30;43.93;;;22.20;;
11620;SDS011;5866;49.094;11.900;2022-12-18T05:17:58;55.57;;;25.23;;
11620;SDS011;5866;49.094;11.900;2022-12-18T05:20:28;45.17;;;21.30;;
11620;SDS011;5866;49.094;11.900;2022-12-18T05:22:56;49.33;;;23.50;;
11620;SDS011;5866;49.094;11.900;2022-12-18T05:25:24;45.83;;;21.97;;
11620;SDS011;5866;49.094;11.900;2022-12-18T05:27:51;45.73;;;20.70;;
11620;SDS011;5866;49.094;11.900;2022-12-18T05:30:19;40.90;;;21.03;;
11620;SDS011;5866;49.094;11.900;2022-12-18T05:32:46;46.57;;;19.63;;
11620;SDS011;5866;49.094;11.900;2022-12-18T05:35:14;45.77;;;20.40;;
11620;SDS011;5866;49.094;11.900;2022-12-18T05:37:43;46.10;;;22.33;;
11620;SDS011;5866;49.094;11.900;2022-12-18T05:40:11;51.63;;;25.30;;
11620;SDS011;5866;49.094;11.900;2022-12-18T05:42:39;50.57;;;23.07;;
11620;SDS011;5866;49.094;11.900;2022-12-18T05:45:06;47.60;;;22.97;;
11620;SDS011;5866;49.094;11.900;2022-12-18T05:47:34;47.33;;;23.97;;
11620;SDS011;5866;49.094;11.900;2022-12-18T05:50:03;48.37;;;23.83;;
11620;SDS011;5866;49.094;11.900;2022-12-18T05:52:33;40.13;;;20.47;;
11620;SDS011;5866;49.094;11.900;2022-12-18T05:55:02;47.47;;;24.77;;
11620;SDS011;5866;49.094;11.900;2022-12-18T05:57:30;45.90;;;23.23;;
11620;SDS011;5866;49.094;11.900;2022-12-18T05:59:58;49.17;;;23.47;;
11620;SDS011;5866;49.094;11.900;2022-12-18T06:02:25;43.63;;;23.43;;
11620;SDS011;5866;49.094;11.900;2022-12-18T06:04:53;46.63;;;24.07;;
11620;SDS011;5866;49.094;11.900;2022-12-18T06:07:20;44.93;;;21.63;;
11620;SDS011;5866;49.094;11.900;2022-12-18T06:09:48;45.80;;;23.53;;
11620;SDS011;5866;49.094;11.900;2022-12-18T06:12:17;43.87;;;23.57;;
11620;SDS011;5866;49.094;11.900;2022-12-18T06:14:44;43.27;;;24.27;;
11620;SDS011;5866;49.094;11.900;2022-12-18T06:17:12;48.33;;;21.77;;
11620;SDS011;5866;49.094;11.900;2022-12-18T06:19:39;54.57;;;23.30;;
11620;SDS011;5866;49.094;11.900;2022-12-18T06:22:07;57.53;;;26.77;;
11620;SDS011;5866;49.094;11.900;2022-12-18T06:24:35;55.83;;;26.13;;
11620;SDS011;5866;49.094;11.900;2022-12-18T06:27:02;52.23;;;25.07;;
11620;SDS011;5866;49.094;11.900;2022-12-18T06:29:31;46.50;;;23.90;;
11620;SDS011;5866;49.094;11.900;2022-12-18T06:31:59;43.33;;;23.03;;
11620;SDS011;5866;49.094;11.900;2022-12-18T06:34:26;44.27;;;23.40;;
11620;SDS011;5866;49.094;11.900;2022-12-18T06:36:54;43.47;;;23.23;;
11620;SDS011;5866;49.094;11.900;2022-12-18T06:39:21;49.30;;;23.40;;
11620;SDS011;5866;49.094;11.900;2022-12-18T06:41:49;49.20;;;23.03;;
11620;SDS011;5866;49.094;11.900;2022-12-18T06:44:17;49.57;;;22.77;;
11620;SDS011;5866;49.094;11.900;2022-12-18T06:46:46;51.53;;;23.27;;
11620;SDS011;5866;49.094;11.900;2022-12-18T06:49:13;49.23;;;24.83;;
11620;SDS011;5866;49.094;11.900;2022-12-18T06:51:42;49.33;;;24.53;;
11620;SDS011;5866;49.094;11.900;2022-12-18T06:54:10;51.30;;;23.77;;
11620;SDS011;5866;49.094;11.900;2022-12-18T06:56:38;49.27;;;24.60;;
11620;SDS011;5866;49.094;11.900;2022-12-18T06:59:05;51.77;;;23.27;;
11620;SDS011;5866;49.094;11.900;2022-12-18T07:01:33;48.10;;;22.70;;
11620;SDS011;5866;49.094;11.900;2022-12-18T07:04:02;46.00;;;21.23;;
11620;SDS011;5866;49.094;11.900;2022-12-18T07:06:30;46.23;;;21.83;;
11620;SDS011;5866;49.094;11.900;2022-12-18T07:08:57;47.67;;;21.53;;
11620;SDS011;5866;49.094;11.900;2022-12-18T07:11:25;47.47;;;21.77;;
11620;SDS011;5866;49.094;11.900;2022-12-18T07:13:52;49.10;;;23.03;;
11620;SDS011;5866;49.094;11.900;2022-12-18T07:16:20;46.07;;;22.60;;
11620;SDS011;5866;49.094;11.900;2022-12-18T07:18:51;46.43;;;22.23;;
11620;SDS011;5866;49.094;11.900;2022-12-18T07:21:20;44.57;;;22.67;;
11620;SDS011;5866;49.094;11.900;2022-12-18T07:23:48;48.20;;;22.60;;
11620;SDS011;5866;49.094;11.900;2022-12-18T07:26:17;48.30;;;24.43;;
11620;SDS011;5866;49.094;11.900;2022-12-18T07:28:46;50.67;;;23.40;;
11620;SDS011;5866;49.094;11.900;2022-12-18T07:31:15;54.17;;;24.07;;
11620;SDS011;5866;49.094;11.900;2022-12-18T07:33:44;52.43;;;24.53;;
11620;SDS011;5866;49.094;11.900;2022-12-18T07:36:13;50.97;;;24.83;;
11620;SDS011;5866;49.094;11.900;2022-12-18T07:38:42;51.87;;;24.33;;
11620;SDS011;5866;49.094;11.900;2022-12-18T07:41:10;49.37;;;23.87;;
11620;SDS011;5866;49.094;11.900;2022-12-18T07:43:40;51.33;;;24.43;;
11620;SDS011;5866;49.094;11.900;2022-12-18T07:46:09;50.20;;;25.70;;
11620;SDS011;5866;49.094;11.900;2022-12-18T07:48:38;58.00;;;26.80;;
11620;SDS011;5866;49.094;11.900;2022-12-18T07:51:06;57.43;;;24.43;;
11620;SDS011;5866;49.094;11.900;2022-12-18T07:53:35;55.73;;;26.23;;
11620;SDS011;5866;49.094;11.900;2022-12-18T07:56:06;55.30;;;27.27;;
11620;SDS011;5866;49.094;11.900;2022-12-18T07:58:54;51.97;;;23.37;;
11620;SDS011;5866;49.094;11.900;2022-12-18T08:01:22;55.90;;;25.90;;
11620;SDS011;5866;49.094;11.900;2022-12-18T08:03:49;51.60;;;26.03;;
11620;SDS011;5866;49.094;11.900;2022-12-18T08:06:18;57.40;;;27.43;;
11620;SDS011;5866;49.094;11.900;2022-12-18T08:08:50;52.67;;;25.33;;
11620;SDS011;5866;49.094;11.900;2022-12-18T08:11:19;55.70;;;27.00;;
11620;SDS011;5866;49.094;11.900;2022-12-18T08:13:47;56.43;;;25.23;;
11620;SDS011;5866;49.094;11.900;2022-12-18T08:16:15;54.40;;;25.70;;
11620;SDS011;5866;49.094;11.900;2022-12-18T08:18:43;61.40;;;28.73;;
11620;SDS011;5866;49.094;11.900;2022-12-18T08:21:11;52.87;;;28.63;;
11620;SDS011;5866;49.094;11.900;2022-12-18T08:23:41;53.37;;;26.40;;
11620;SDS011;5866;49.094;11.900;2022-12-18T08:26:09;54.60;;;26.27;;
11620;SDS011;5866;49.094;11.900;2022-12-18T08:28:39;51.63;;;25.93;;
11620;SDS011;5866;49.094;11.900;2022-12-18T08:31:07;52.60;;;25.37;;
11620;SDS011;5866;49.094;11.900;2022-12-18T08:33:35;52.93;;;25.40;;
11620;SDS011;5866;49.094;11.900;2022-12-18T08:36:06;56.33;;;28.07;;
11620;SDS011;5866;49.094;11.900;2022-12-18T08:38:36;55.93;;;27.43;;
11620;SDS011;5866;49.094;11.900;2022-12-18T08:41:04;53.50;;;27.27;;
11620;SDS011;5866;49.094;11.900;2022-12-18T08:43:33;54.47;;;28.83;;
11620;SDS011;5866;49.094;11.900;2022-12-18T08:46:21;48.90;;;29.23;;
11620;SDS011;5866;49.094;11.900;2022-12-18T08:48:50;53.90;;;28.27;;
11620;SDS011;5866;49.094;11.900;2022-12-18T08:51:18;59.27;;;30.07;;
11620;SDS011;5866;49.094;11.900;2022-12-18T08:53:46;57.97;;;26.73;;
11620;SDS011;5866;49.094;11.900;2022-12-18T08:56:14;50.80;;;26.00;;
11620;SDS011;5866;49.094;11.900;2022-12-18T08:58:42;53.63;;;28.47;;
11620;SDS011;5866;49.094;11.900;2022-12-18T09:01:10;52.53;;;26.30;;
11620;SDS011;5866;49.094;11.900;2022-12-18T09:03:41;57.87;;;31.60;;
11620;SDS011;5866;49.094;11.900;2022-12-18T09:06:12;48.03;;;26.63;;
11620;SDS011;5866;49.094;11.900;2022-12-18T09:08:40;55.20;;;27.63;;
11620;SDS011;5866;49.094;11.900;2022-12-18T09:11:11;56.93;;;26.27;;
11620;SDS011;5866;49.094;11.900;2022-12-18T09:13:40;55.53;;;27.60;;
11620;SDS011;5866;49.094;11.900;2022-12-18T09:16:08;52.50;;;26.30;;
11620;SDS011;5866;49.094;11.900;2022-12-18T09:18:35;52.90;;;26.63;;
11620;SDS011;5866;49.094;11.900;2022-12-18T09:21:09;55.57;;;23.70;;
11620;SDS011;5866;49.094;11.900;2022-12-18T09:23:38;50.07;;;21.40;;
11620;SDS011;5866;49.094;11.900;2022-12-18T09:26:06;50.07;;;30.27;;
11620;SDS011;5866;49.094;11.900;2022-12-18T09:28:34;49.27;;;25.90;;
11620;SDS011;5866;49.094;11.900;2022-12-18T09:31:03;46.90;;;27.10;;
11620;SDS011;5866;49.094;11.900;2022-12-18T09:33:33;48.10;;;25.63;;
11620;SDS011;5866;49.094;11.900;2022-12-18T09:36:02;45.40;;;26.57;;
11620;SDS011;5866;49.094;11.900;2022-12-18T09:38:32;44.77;;;25.00;;
11620;SDS011;5866;49.094;11.900;2022-12-18T09:41:03;41.07;;;23.30;;
11620;SDS011;5866;49.094;11.900;2022-12-18T09:43:34;45.50;;;24.00;;
11620;SDS011;5866;49.094;11.900;2022-12-18T09:46:08;45.47;;;23.53;;
11620;SDS011;5866;49.094;11.900;2022-12-18T09:48:42;41.27;;;24.50;;
11620;SDS011;5866;49.094;11.900;2022-12-18T09:51:15;46.70;;;22.97;;
11620;SDS011;5866;49.094;11.900;2022-12-18T09:53:50;39.00;;;22.87;;
11620;SDS011;5866;49.094;11.900;2022-12-18T09:56:22;43.57;;;25.43;;
11620;SDS011;5866;49.094;11.900;2022-12-18T09:59:02;47.03;;;29.47;;
11620;SDS011;5866;49.094;11.900;2022-12-18T10:01:31;47.03;;;27.30;;
11620;SDS011;5866;49.094;11.900;2022-12-18T10:04:08;43.77;;;30.10;;
11620;SDS011;5866;49.094;11.900;2022-12-18T10:06:37;48.00;;;31.50;;
11620;SDS011;5866;49.094;11.900;2022-12-18T10:09:14;46.20;;;28.43;;
11620;SDS011;5866;49.094;11.900;2022-12-18T10:11:53;42.60;;;27.83;;
11620;SDS011;5866;49.094;11.900;2022-12-18T10:14:27;42.67;;;30.73;;
11620;SDS011;5866;49.094;11.900;2022-12-18T10:17:02;46.60;;;31.27;;
11620;SDS011;5866;49.094;11.900;2022-12-18T10:19:43;45.77;;;27.50;;
11620;SDS011;5866;49.094;11.900;2022-12-18T10:22:19;44.87;;;28.60;;
11620;SDS011;5866;49.094;11.900;2022-12-18T10:24:57;41.00;;;31.73;;
11620;SDS011;5866;49.094;11.900;2022-12-18T10:27:30;37.97;;;28.23;;
11620;SDS011;5866;49.094;11.900;2022-12-18T10:29:58;43.83;;;30.77;;
11620;SDS011;5866;49.094;11.900;2022-12-18T10:32:29;40.13;;;26.60;;
11620;SDS011;5866;49.094;11.900;2022-12-18T10:34:57;44.53;;;28.57;;
11620;SDS011;5866;49.094;11.900;2022-12-18T10:37:27;39.90;;;24.90;;
11620;SDS011;5866;49.094;11.900;2022-12-18T10:40:09;35.40;;;19.30;;
11620;SDS011;5866;49.094;11.900;2022-12-18T10:42:47;42.03;;;29.40;;
11620;SDS011;5866;49.094;11.900;2022-12-18T10:45:31;39.83;;;29.00;;
11620;SDS011;5866;49.094;11.900;2022-12-18T10:47:58;43.27;;;27.27;;
11620;SDS011;5866;49.094;11.900;2022-12-18T10:50:28;41.70;;;23.67;;
11620;SDS011;5866;49.094;11.900;2022-12-18T10:53:18;44.30;;;33.13;;
11620;SDS011;5866;49.094;11.900;2022-12-18T10:55:49;45.03;;;31.37;;
11620;SDS011;5866;49.094;11.900;2022-12-18T10:58:22;41.57;;;30.10;;
11620;SDS011;5866;49.094;11.900;2022-12-18T11:01:06;35.03;;;26.33;;
11620;SDS011;5866;49.094;11.900;2022-12-18T11:03:36;40.20;;;29.93;;
11620;SDS011;5866;49.094;11.900;2022-12-18T11:06:06;32.87;;;25.00;;
11620;SDS011;5866;49.094;11.900;2022-12-18T11:08:35;41.27;;;30.83;;
11620;SDS011;5866;49.094;11.900;2022-12-18T11:11:15;41.13;;;28.20;;
11620;SDS011;5866;49.094;11.900;2022-12-18T11:13:53;39.53;;;22.03;;
11620;SDS011;5866;49.094;11.900;2022-12-18T11:16:28;43.23;;;22.40;;
11620;SDS011;5866;49.094;11.900;2022-12-18T11:19:08;38.13;;;19.70;;
11620;SDS011;5866;49.094;11.900;2022-12-18T11:21:42;33.87;;;21.40;;
11620;SDS011;5866;49.094;11.900;2022-12-18T11:24:15;37.30;;;19.87;;
11620;SDS011;5866;49.094;11.900;2022-12-18T11:26:49;39.30;;;22.10;;
11620;SDS011;5866;49.094;11.900;2022-12-18T11:29:27;34.63;;;24.63;;
11620;SDS011;5866;49.094;11.900;2022-12-18T11:35:03;39.63;;;21.83;;
11620;SDS011;5866;49.094;11.900;2022-12-18T11:37:39;39.20;;;20.67;;
11620;SDS011;5866;49.094;11.900;2022-12-18T11:40:11;34.17;;;18.93;;
11620;SDS011;5866;49.094;11.900;2022-12-18T11:42:46;37.10;;;22.47;;
11620;SDS011;5866;49.094;11.900;2022-12-18T11:45:27;30.90;;;19.10;;
11620;SDS011;5866;49.094;11.900;2022-12-18T11:47:59;36.57;;;19.77;;
11620;SDS011;5866;49.094;11.900;2022-12-18T11:50:33;32.30;;;18.40;;
11620;SDS011;5866;49.094;11.900;2022-12-18T11:53:11;35.37;;;18.97;;
11620;SDS011;5866;49.094;11.900;2022-12-18T11:55:40;36.83;;;20.73;;
11620;SDS011;5866;49.094;11.900;2022-12-18T11:58:17;38.47;;;26.87;;
11620;SDS011;5866;49.094;11.900;2022-12-18T12:00:58;46.13;;;34.33;;
11620;SDS011;5866;49.094;11.900;2022-12-18T12:03:47;35.33;;;19.43;;
11620;SDS011;5866;49.094;11.900;2022-12-18T12:06:38;36.37;;;20.23;;
11620;SDS011;5866;49.094;11.900;2022-12-18T12:09:15;45.10;;;39.00;;
11620;SDS011;5866;49.094;11.900;2022-12-18T12:11:52;57.37;;;51.57;;
11620;SDS011;5866;49.094;11.900;2022-12-18T12:17:24;44.10;;;39.27;;
11620;SDS011;5866;49.094;11.900;2022-12-18T12:20:00;42.10;;;29.67;;
11620;SDS011;5866;49.094;11.900;2022-12-18T12:22:36;37.97;;;23.70;;
11620;SDS011;5866;49.094;11.900;2022-12-18T12:25:14;40.43;;;27.87;;
11620;SDS011;5866;49.094;11.900;2022-12-18T12:27:57;54.57;;;48.80;;
11620;SDS011;5866;49.094;11.900;2022-12-18T12:30:41;39.30;;;29.43;;
11620;SDS011;5866;49.094;11.900;2022-12-18T12:33:22;37.60;;;26.27;;
11620;SDS011;5866;49.094;11.900;2022-12-18T12:36:02;39.23;;;27.03;;
11620;SDS011;5866;49.094;11.900;2022-12-18T12:38:41;39.90;;;30.83;;
11620;SDS011;5866;49.094;11.900;2022-12-18T12:41:17;63.87;;;57.87;;
11620;SDS011;5866;49.094;11.900;2022-12-18T12:44:07;63.70;;;57.83;;
11620;SDS011;5866;49.094;11.900;2022-12-18T12:46:41;41.00;;;33.40;;
11620;SDS011;5866;49.094;11.900;2022-12-18T12:49:12;64.90;;;58.70;;
11620;SDS011;5866;49.094;11.900;2022-12-18T12:51:45;62.20;;;56.03;;
11620;SDS011;5866;49.094;11.900;2022-12-18T12:54:17;63.77;;;57.20;;
11620;SDS011;5866;49.094;11.900;2022-12-18T12:56:50;62.37;;;55.97;;
11620;SDS011;5866;49.094;11.900;2022-12-18T12:59:25;49.10;;;34.40;;
11620;SDS011;5866;49.094;11.900;2022-12-18T13:02:02;35.63;;;23.33;;
11620;SDS011;5866;49.094;11.900;2022-12-18T13:04:41;41.73;;;25.67;;
11620;SDS011;5866;49.094;11.900;2022-12-18T13:07:15;47.00;;;40.90;;
11620;SDS011;5866;49.094;11.900;2022-12-18T13:12:51;34.40;;;27.97;;
11620;SDS011;5866;49.094;11.900;2022-12-18T13:15:22;51.70;;;46.50;;
11620;SDS011;5866;49.094;11.900;2022-12-18T13:20:41;33.70;;;25.27;;
11620;SDS011;5866;49.094;11.900;2022-12-18T13:23:23;32.50;;;18.50;;
11620;SDS011;5866;49.094;11.900;2022-12-18T13:25:55;28.97;;;18.13;;
11620;SDS011;5866;49.094;11.900;2022-12-18T13:28:23;34.30;;;18.90;;
11620;SDS011;5866;49.094;11.900;2022-12-18T13:34:40;31.13;;;18.63;;
11620;SDS011;5866;49.094;11.900;2022-12-18T13:43:23;41.23;;;35.50;;
11620;SDS011;5866;49.094;11.900;2022-12-18T13:46:04;41.67;;;36.33;;
11620;SDS011;5866;49.094;11.900;2022-12-18T13:48:48;53.73;;;48.33;;
11620;SDS011;5866;49.094;11.900;2022-12-18T13:51:20;43.37;;;34.13;;
11620;SDS011;5866;49.094;11.900;2022-12-18T13:53:50;39.90;;;34.00;;
11620;SDS011;5866;49.094;11.900;2022-12-18T13:56:22;44.80;;;39.97;;
11620;SDS011;5866;49.094;11.900;2022-12-18T14:01:48;42.93;;;38.37;;
11620;SDS011;5866;49.094;11.900;2022-12-18T14:04:20;43.23;;;38.40;;
11620;SDS011;5866;49.094;11.900;2022-12-18T14:06:52;47.40;;;42.47;;
11620;SDS011;5866;49.094;11.900;2022-12-18T14:09:24;55.57;;;48.47;;
11620;SDS011;5866;49.094;11.900;2022-12-18T14:11:55;59.30;;;48.33;;
11620;SDS011;5866;49.094;11.900;2022-12-18T14:14:44;47.77;;;42.93;;
11620;SDS011;5866;49.094;11.900;2022-12-18T14:17:16;41.43;;;37.00;;
11620;SDS011;5866;49.094;11.900;2022-12-18T14:19:45;32.77;;;19.30;;
11620;SDS011;5866;49.094;11.900;2022-12-18T14:22:16;31.13;;;17.00;;
11620;SDS011;5866;49.094;11.900;2022-12-18T14:24:45;31.13;;;17.93;;
11620;SDS011;5866;49.094;11.900;2022-12-18T14:27:22;34.80;;;17.83;;
11620;SDS011;5866;49.094;11.900;2022-12-18T14:29:51;34.93;;;17.27;;
11620;SDS011;5866;49.094;11.900;2022-12-18T14:32:19;33.47;;;17.97;;
11620;SDS011;5866;49.094;11.900;2022-12-18T14:34:48;32.13;;;18.53;;
11620;SDS011;5866;49.094;11.900;2022-12-18T14:37:20;37.30;;;19.23;;
11620;SDS011;5866;49.094;11.900;2022-12-18T14:39:54;33.23;;;19.43;;
11620;SDS011;5866;49.094;11.900;2022-12-18T14:42:24;38.23;;;30.07;;
11620;SDS011;5866;49.094;11.900;2022-12-18T14:48:07;48.73;;;43.57;;
11620;SDS011;5866;49.094;11.900;2022-12-18T14:50:41;50.30;;;45.00;;
11620;SDS011;5866;49.094;11.900;2022-12-18T14:53:19;50.73;;;45.50;;
11620;SDS011;5866;49.094;11.900;2022-12-18T14:55:50;50.53;;;45.23;;
11620;SDS011;5866;49.094;11.900;2022-12-18T14:58:17;53.43;;;48.13;;
11620;SDS011;5866;49.094;11.900;2022-12-18T15:00:45;47.43;;;42.30;;
11620;SDS011;5866;49.094;11.900;2022-12-18T15:03:14;54.93;;;49.17;;
11620;SDS011;5866;49.094;11.900;2022-12-18T15:05:46;55.80;;;50.20;;
11620;SDS011;5866;49.094;11.900;2022-12-18T15:08:26;42.40;;;33.60;;
11620;SDS011;5866;49.094;11.900;2022-12-18T15:10:58;39.57;;;20.37;;
11620;SDS011;5866;49.094;11.900;2022-12-18T15:13:26;42.43;;;21.77;;